sensor_id;sensor_type;location;lat;lon;timestamp;P1;durP1;ratioP1;P2;durP2;ratioP2
76826;SDS011;65788;52.284;20.890;2023-11-19T00:00:08;15.30;;;9.70;;
76826;SDS011;65788;52.284;20.890;2023-11-19T00:03:01;14.70;;;9.80;;
76826;SDS011;65788;52.284;20.890;2023-11-19T00:05:28;13.90;;;9.40;;
76826;SDS011;65788;52.284;20.890;2023-11-19T00:07:55;11.60;;;9.00;;
76826;SDS011;65788;52.284;20.890;2023-11-19T00:10:22;13.50;;;9.20;;
76826;SDS011;65788;52.284;20.890;2023-11-19T00:12:49;13.50;;;9.60;;
76826;SDS011;65788;52.284;20.890;2023-11-19T00:15:17;12.90;;;8.90;;
76826;SDS011;65788;52.284;20.890;2023-11-19T00:17:45;13.80;;;9.60;;
76826;SDS011;65788;52.284;20.890;2023-11-19T00:20:14;12.60;;;9.50;;
76826;SDS011;65788;52.284;20.890;2023-11-19T00:22:43;14.40;;;10.00;;
76826;SDS011;65788;52.284;20.890;2023-11-19T00:25:10;13.50;;;9.90;;
76826;SDS011;65788;52.284;20.890;2023-11-19T00:27:40;13.80;;;9.60;;
76826;SDS011;65788;52.284;20.890;2023-11-19T00:30:09;13.30;;;9.20;;
76826;SDS011;65788;52.284;20.890;2023-11-19T00:32:37;13.30;;;9.80;;
76826;SDS011;65788;52.284;20.890;2023-11-19T00:35:06;12.90;;;9.60;;
76826;SDS011;65788;52.284;20.890;2023-11-19T00:37:34;12.40;;;9.70;;
76826;SDS011;65788;52.284;20.890;2023-11-19T00:40:01;14.90;;;8.90;;
76826;SDS011;65788;52.284;20.890;2023-11-19T00:42:31;13.20;;;9.60;;
76826;SDS011;65788;52.284;20.890;2023-11-19T00:44:58;12.00;;;9.50;;
76826;SDS011;65788;52.284;20.890;2023-11-19T00:47:25;13.60;;;9.00;;
76826;SDS011;65788;52.284;20.890;2023-11-19T00:49:52;12.00;;;8.90;;
76826;SDS011;65788;52.284;20.890;2023-11-19T00:52:19;13.40;;;9.00;;
76826;SDS011;65788;52.284;20.890;2023-11-19T00:54:47;12.70;;;9.30;;
76826;SDS011;65788;52.284;20.890;2023-11-19T00:57:13;14.00;;;9.30;;
76826;SDS011;65788;52.284;20.890;2023-11-19T00:59:42;12.50;;;9.30;;
76826;SDS011;65788;52.284;20.890;2023-11-19T01:04:36;11.70;;;8.70;;
76826;SDS011;65788;52.284;20.890;2023-11-19T01:07:04;13.20;;;8.60;;
76826;SDS011;65788;52.284;20.890;2023-11-19T01:09:32;11.70;;;8.90;;
76826;SDS011;65788;52.284;20.890;2023-11-19T01:12:01;12.10;;;9.10;;
76826;SDS011;65788;52.284;20.890;2023-11-19T01:14:29;11.30;;;9.00;;
76826;SDS011;65788;52.284;20.890;2023-11-19T01:16:57;12.50;;;8.80;;
76826;SDS011;65788;52.284;20.890;2023-11-19T01:19:26;12.40;;;8.90;;
76826;SDS011;65788;52.284;20.890;2023-11-19T01:21:55;11.90;;;8.80;;
76826;SDS011;65788;52.284;20.890;2023-11-19T01:24:22;11.20;;;8.80;;
76826;SDS011;65788;52.284;20.890;2023-11-19T01:26:49;10.80;;;9.00;;
76826;SDS011;65788;52.284;20.890;2023-11-19T01:29:16;10.80;;;9.00;;
76826;SDS011;65788;52.284;20.890;2023-11-19T01:31:43;11.20;;;8.70;;
76826;SDS011;65788;52.284;20.890;2023-11-19T01:34:19;13.70;;;9.50;;
76826;SDS011;65788;52.284;20.890;2023-11-19T01:36:47;11.00;;;8.90;;
76826;SDS011;65788;52.284;20.890;2023-11-19T01:39:15;11.60;;;8.40;;
76826;SDS011;65788;52.284;20.890;2023-11-19T01:41:46;12.80;;;8.60;;
76826;SDS011;65788;52.284;20.890;2023-11-19T01:44:14;12.60;;;9.60;;
76826;SDS011;65788;52.284;20.890;2023-11-19T01:46:41;11.30;;;9.00;;
76826;SDS011;65788;52.284;20.890;2023-11-19T01:49:10;11.30;;;8.90;;
76826;SDS011;65788;52.284;20.890;2023-11-19T01:51:40;11.70;;;8.80;;
76826;SDS011;65788;52.284;20.890;2023-11-19T01:54:07;11.10;;;8.10;;
76826;SDS011;65788;52.284;20.890;2023-11-19T01:56:36;13.00;;;9.40;;
76826;SDS011;65788;52.284;20.890;2023-11-19T01:59:08;12.80;;;9.30;;
76826;SDS011;65788;52.284;20.890;2023-11-19T02:01:37;12.90;;;8.60;;
76826;SDS011;65788;52.284;20.890;2023-11-19T02:04:07;12.10;;;9.50;;
76826;SDS011;65788;52.284;20.890;2023-11-19T02:06:34;11.20;;;8.70;;
76826;SDS011;65788;52.284;20.890;2023-11-19T02:09:07;11.80;;;8.60;;
76826;SDS011;65788;52.284;20.890;2023-11-19T02:11:34;11.40;;;8.60;;
76826;SDS011;65788;52.284;20.890;2023-11-19T02:14:02;10.40;;;8.20;;
76826;SDS011;65788;52.284;20.890;2023-11-19T02:16:31;13.80;;;9.60;;
76826;SDS011;65788;52.284;20.890;2023-11-19T02:18:58;11.40;;;8.80;;
76826;SDS011;65788;52.284;20.890;2023-11-19T02:21:25;11.10;;;8.80;;
76826;SDS011;65788;52.284;20.890;2023-11-19T02:23:52;11.40;;;8.80;;
76826;SDS011;65788;52.284;20.890;2023-11-19T02:29:06;11.60;;;9.30;;
76826;SDS011;65788;52.284;20.890;2023-11-19T02:31:35;13.00;;;8.80;;
76826;SDS011;65788;52.284;20.890;2023-11-19T02:34:05;11.70;;;8.60;;
76826;SDS011;65788;52.284;20.890;2023-11-19T02:36:33;12.60;;;8.60;;
76826;SDS011;65788;52.284;20.890;2023-11-19T02:39:01;11.80;;;9.20;;
76826;SDS011;65788;52.284;20.890;2023-11-19T02:41:30;13.20;;;9.70;;
76826;SDS011;65788;52.284;20.890;2023-11-19T02:43:57;14.00;;;9.30;;
76826;SDS011;65788;52.284;20.890;2023-11-19T02:46:24;12.30;;;9.20;;
76826;SDS011;65788;52.284;20.890;2023-11-19T02:48:53;12.30;;;9.00;;
76826;SDS011;65788;52.284;20.890;2023-11-19T02:51:19;11.70;;;9.00;;
76826;SDS011;65788;52.284;20.890;2023-11-19T02:53:46;12.10;;;9.60;;
76826;SDS011;65788;52.284;20.890;2023-11-19T02:56:15;12.20;;;9.50;;
76826;SDS011;65788;52.284;20.890;2023-11-19T02:58:52;11.40;;;8.90;;
76826;SDS011;65788;52.284;20.890;2023-11-19T03:01:25;11.60;;;9.20;;
76826;SDS011;65788;52.284;20.890;2023-11-19T03:03:56;12.20;;;9.40;;
76826;SDS011;65788;52.284;20.890;2023-11-19T03:06:24;11.90;;;9.70;;
76826;SDS011;65788;52.284;20.890;2023-11-19T03:08:52;12.70;;;9.80;;
76826;SDS011;65788;52.284;20.890;2023-11-19T03:11:19;11.50;;;9.20;;
76826;SDS011;65788;52.284;20.890;2023-11-19T03:13:46;11.30;;;9.10;;
76826;SDS011;65788;52.284;20.890;2023-11-19T03:16:15;11.80;;;9.10;;
76826;SDS011;65788;52.284;20.890;2023-11-19T03:18:43;12.80;;;10.30;;
76826;SDS011;65788;52.284;20.890;2023-11-19T03:21:10;11.80;;;9.20;;
76826;SDS011;65788;52.284;20.890;2023-11-19T03:23:37;13.90;;;10.10;;
76826;SDS011;65788;52.284;20.890;2023-11-19T03:26:07;11.80;;;9.70;;
76826;SDS011;65788;52.284;20.890;2023-11-19T03:31:04;13.30;;;9.70;;
76826;SDS011;65788;52.284;20.890;2023-11-19T03:33:34;12.60;;;10.10;;
76826;SDS011;65788;52.284;20.890;2023-11-19T03:36:03;12.20;;;9.10;;
76826;SDS011;65788;52.284;20.890;2023-11-19T03:38:31;12.50;;;9.70;;
76826;SDS011;65788;52.284;20.890;2023-11-19T03:40:58;12.70;;;9.90;;
76826;SDS011;65788;52.284;20.890;2023-11-19T03:43:25;12.80;;;9.30;;
76826;SDS011;65788;52.284;20.890;2023-11-19T03:45:55;13.20;;;10.60;;
76826;SDS011;65788;52.284;20.890;2023-11-19T03:48:22;13.20;;;9.70;;
76826;SDS011;65788;52.284;20.890;2023-11-19T03:50:49;13.30;;;10.20;;
76826;SDS011;65788;52.284;20.890;2023-11-19T03:53:16;13.80;;;10.10;;
76826;SDS011;65788;52.284;20.890;2023-11-19T03:55:43;12.50;;;9.90;;
76826;SDS011;65788;52.284;20.890;2023-11-19T03:58:12;11.30;;;9.20;;
76826;SDS011;65788;52.284;20.890;2023-11-19T04:00:40;12.40;;;9.10;;
76826;SDS011;65788;52.284;20.890;2023-11-19T04:03:07;11.90;;;9.90;;
76826;SDS011;65788;52.284;20.890;2023-11-19T04:05:34;12.20;;;9.60;;
76826;SDS011;65788;52.284;20.890;2023-11-19T04:08:01;13.90;;;10.80;;
76826;SDS011;65788;52.284;20.890;2023-11-19T04:10:28;12.60;;;9.90;;
76826;SDS011;65788;52.284;20.890;2023-11-19T04:12:55;12.30;;;10.10;;
76826;SDS011;65788;52.284;20.890;2023-11-19T04:15:23;12.60;;;10.00;;
76826;SDS011;65788;52.284;20.890;2023-11-19T04:17:53;12.40;;;10.00;;
76826;SDS011;65788;52.284;20.890;2023-11-19T04:20:21;14.50;;;10.10;;
76826;SDS011;65788;52.284;20.890;2023-11-19T04:22:49;13.80;;;10.60;;
76826;SDS011;65788;52.284;20.890;2023-11-19T04:25:17;13.00;;;10.40;;
76826;SDS011;65788;52.284;20.890;2023-11-19T04:27:46;14.00;;;10.10;;
76826;SDS011;65788;52.284;20.890;2023-11-19T04:30:14;14.30;;;10.90;;
76826;SDS011;65788;52.284;20.890;2023-11-19T04:32:43;14.70;;;11.00;;
76826;SDS011;65788;52.284;20.890;2023-11-19T04:35:11;14.20;;;10.20;;
76826;SDS011;65788;52.284;20.890;2023-11-19T04:37:38;13.70;;;10.50;;
76826;SDS011;65788;52.284;20.890;2023-11-19T04:40:06;13.80;;;10.80;;
76826;SDS011;65788;52.284;20.890;2023-11-19T04:42:34;14.00;;;10.90;;
76826;SDS011;65788;52.284;20.890;2023-11-19T04:45:01;12.80;;;10.30;;
76826;SDS011;65788;52.284;20.890;2023-11-19T04:47:28;13.10;;;10.30;;
76826;SDS011;65788;52.284;20.890;2023-11-19T04:49:55;14.70;;;10.90;;
76826;SDS011;65788;52.284;20.890;2023-11-19T04:52:22;14.00;;;10.10;;
76826;SDS011;65788;52.284;20.890;2023-11-19T04:54:49;13.10;;;10.30;;
76826;SDS011;65788;52.284;20.890;2023-11-19T04:57:16;12.80;;;9.80;;
76826;SDS011;65788;52.284;20.890;2023-11-19T04:59:44;12.90;;;10.60;;
76826;SDS011;65788;52.284;20.890;2023-11-19T05:02:10;12.80;;;9.70;;
76826;SDS011;65788;52.284;20.890;2023-11-19T05:04:42;12.30;;;9.40;;
76826;SDS011;65788;52.284;20.890;2023-11-19T05:07:10;13.70;;;10.00;;
76826;SDS011;65788;52.284;20.890;2023-11-19T05:09:37;16.60;;;10.10;;
76826;SDS011;65788;52.284;20.890;2023-11-19T05:12:04;13.50;;;10.10;;
76826;SDS011;65788;52.284;20.890;2023-11-19T05:14:31;11.40;;;9.30;;
76826;SDS011;65788;52.284;20.890;2023-11-19T05:16:58;13.70;;;9.70;;
76826;SDS011;65788;52.284;20.890;2023-11-19T05:19:26;13.80;;;9.50;;
76826;SDS011;65788;52.284;20.890;2023-11-19T05:21:53;12.30;;;9.80;;
76826;SDS011;65788;52.284;20.890;2023-11-19T05:24:20;11.70;;;8.80;;
76826;SDS011;65788;52.284;20.890;2023-11-19T05:26:47;12.20;;;9.80;;
76826;SDS011;65788;52.284;20.890;2023-11-19T05:29:17;12.50;;;9.40;;
76826;SDS011;65788;52.284;20.890;2023-11-19T05:31:44;11.70;;;8.60;;
76826;SDS011;65788;52.284;20.890;2023-11-19T05:34:11;12.60;;;9.10;;
76826;SDS011;65788;52.284;20.890;2023-11-19T05:36:40;10.80;;;8.40;;
76826;SDS011;65788;52.284;20.890;2023-11-19T05:39:07;10.70;;;8.40;;
76826;SDS011;65788;52.284;20.890;2023-11-19T05:41:34;13.10;;;9.50;;
76826;SDS011;65788;52.284;20.890;2023-11-19T05:44:01;12.50;;;9.60;;
76826;SDS011;65788;52.284;20.890;2023-11-19T05:46:28;11.50;;;9.00;;
76826;SDS011;65788;52.284;20.890;2023-11-19T05:48:55;10.70;;;8.50;;
76826;SDS011;65788;52.284;20.890;2023-11-19T05:51:24;10.60;;;8.60;;
76826;SDS011;65788;52.284;20.890;2023-11-19T05:53:52;11.10;;;8.50;;
76826;SDS011;65788;52.284;20.890;2023-11-19T05:56:19;11.30;;;8.40;;
76826;SDS011;65788;52.284;20.890;2023-11-19T05:58:48;11.40;;;9.30;;
76826;SDS011;65788;52.284;20.890;2023-11-19T06:01:16;11.10;;;8.30;;
76826;SDS011;65788;52.284;20.890;2023-11-19T06:03:44;11.60;;;8.60;;
76826;SDS011;65788;52.284;20.890;2023-11-19T06:06:16;10.20;;;8.20;;
76826;SDS011;65788;52.284;20.890;2023-11-19T06:08:43;10.90;;;8.40;;
76826;SDS011;65788;52.284;20.890;2023-11-19T06:11:10;10.10;;;8.00;;
76826;SDS011;65788;52.284;20.890;2023-11-19T06:13:44;8.90;;;7.40;;
76826;SDS011;65788;52.284;20.890;2023-11-19T06:16:11;10.70;;;8.30;;
76826;SDS011;65788;52.284;20.890;2023-11-19T06:18:38;10.60;;;8.30;;
76826;SDS011;65788;52.284;20.890;2023-11-19T06:21:06;11.40;;;8.50;;
76826;SDS011;65788;52.284;20.890;2023-11-19T06:23:32;9.80;;;7.70;;
76826;SDS011;65788;52.284;20.890;2023-11-19T06:25:59;9.70;;;7.30;;
76826;SDS011;65788;52.284;20.890;2023-11-19T06:28:26;9.80;;;7.40;;
76826;SDS011;65788;52.284;20.890;2023-11-19T06:30:54;9.30;;;7.60;;
76826;SDS011;65788;52.284;20.890;2023-11-19T06:33:22;10.60;;;7.90;;
76826;SDS011;65788;52.284;20.890;2023-11-19T06:35:51;9.30;;;7.90;;
76826;SDS011;65788;52.284;20.890;2023-11-19T06:38:18;9.30;;;7.20;;
76826;SDS011;65788;52.284;20.890;2023-11-19T06:40:45;9.50;;;7.70;;
76826;SDS011;65788;52.284;20.890;2023-11-19T06:43:13;10.80;;;8.20;;
76826;SDS011;65788;52.284;20.890;2023-11-19T06:45:40;10.90;;;8.00;;
76826;SDS011;65788;52.284;20.890;2023-11-19T06:48:07;9.20;;;7.60;;
76826;SDS011;65788;52.284;20.890;2023-11-19T06:50:34;8.90;;;6.90;;
76826;SDS011;65788;52.284;20.890;2023-11-19T06:53:02;9.20;;;6.90;;
76826;SDS011;65788;52.284;20.890;2023-11-19T06:55:29;8.70;;;7.10;;
76826;SDS011;65788;52.284;20.890;2023-11-19T06:57:56;9.10;;;6.90;;
76826;SDS011;65788;52.284;20.890;2023-11-19T07:00:23;9.80;;;7.10;;
76826;SDS011;65788;52.284;20.890;2023-11-19T07:02:51;8.80;;;6.80;;
76826;SDS011;65788;52.284;20.890;2023-11-19T07:05:20;10.40;;;7.70;;
76826;SDS011;65788;52.284;20.890;2023-11-19T07:07:49;10.80;;;7.90;;
76826;SDS011;65788;52.284;20.890;2023-11-19T07:10:17;9.40;;;7.40;;
76826;SDS011;65788;52.284;20.890;2023-11-19T07:15:12;9.50;;;7.10;;
76826;SDS011;65788;52.284;20.890;2023-11-19T07:17:39;8.30;;;6.80;;
76826;SDS011;65788;52.284;20.890;2023-11-19T07:20:07;8.40;;;6.90;;
76826;SDS011;65788;52.284;20.890;2023-11-19T07:22:34;10.00;;;7.20;;
76826;SDS011;65788;52.284;20.890;2023-11-19T07:25:01;9.80;;;6.70;;
76826;SDS011;65788;52.284;20.890;2023-11-19T07:27:28;7.30;;;6.20;;
76826;SDS011;65788;52.284;20.890;2023-11-19T07:29:55;8.40;;;6.50;;
76826;SDS011;65788;52.284;20.890;2023-11-19T07:32:22;8.10;;;6.20;;
76826;SDS011;65788;52.284;20.890;2023-11-19T07:34:49;7.70;;;6.30;;
76826;SDS011;65788;52.284;20.890;2023-11-19T07:37:17;7.80;;;6.20;;
76826;SDS011;65788;52.284;20.890;2023-11-19T07:39:44;8.30;;;6.60;;
76826;SDS011;65788;52.284;20.890;2023-11-19T07:42:10;7.20;;;6.20;;
76826;SDS011;65788;52.284;20.890;2023-11-19T07:44:37;7.10;;;6.10;;
76826;SDS011;65788;52.284;20.890;2023-11-19T07:47:04;7.60;;;5.70;;
76826;SDS011;65788;52.284;20.890;2023-11-19T07:49:33;7.00;;;5.80;;
76826;SDS011;65788;52.284;20.890;2023-11-19T07:52:08;7.10;;;5.60;;
76826;SDS011;65788;52.284;20.890;2023-11-19T07:54:36;6.90;;;5.70;;
76826;SDS011;65788;52.284;20.890;2023-11-19T07:57:03;7.50;;;5.90;;
76826;SDS011;65788;52.284;20.890;2023-11-19T07:59:30;6.80;;;5.20;;
76826;SDS011;65788;52.284;20.890;2023-11-19T08:01:59;6.90;;;5.70;;
76826;SDS011;65788;52.284;20.890;2023-11-19T08:04:26;7.30;;;6.00;;
76826;SDS011;65788;52.284;20.890;2023-11-19T08:06:53;7.30;;;5.30;;
76826;SDS011;65788;52.284;20.890;2023-11-19T08:09:20;7.20;;;5.40;;
76826;SDS011;65788;52.284;20.890;2023-11-19T08:11:47;6.70;;;5.10;;
76826;SDS011;65788;52.284;20.890;2023-11-19T08:14:15;7.40;;;5.40;;
76826;SDS011;65788;52.284;20.890;2023-11-19T08:16:43;6.80;;;5.50;;
76826;SDS011;65788;52.284;20.890;2023-11-19T08:21:39;5.40;;;4.80;;
76826;SDS011;65788;52.284;20.890;2023-11-19T08:24:06;6.60;;;5.70;;
76826;SDS011;65788;52.284;20.890;2023-11-19T08:26:33;6.70;;;5.40;;
76826;SDS011;65788;52.284;20.890;2023-11-19T08:29:01;5.50;;;4.60;;
76826;SDS011;65788;52.284;20.890;2023-11-19T08:31:28;6.00;;;5.20;;
76826;SDS011;65788;52.284;20.890;2023-11-19T08:33:55;6.10;;;5.00;;
76826;SDS011;65788;52.284;20.890;2023-11-19T08:36:21;6.60;;;5.30;;
76826;SDS011;65788;52.284;20.890;2023-11-19T08:38:48;6.10;;;4.60;;
76826;SDS011;65788;52.284;20.890;2023-11-19T08:41:16;6.30;;;5.20;;
76826;SDS011;65788;52.284;20.890;2023-11-19T08:43:44;7.60;;;5.00;;
76826;SDS011;65788;52.284;20.890;2023-11-19T08:46:12;6.10;;;4.60;;
76826;SDS011;65788;52.284;20.890;2023-11-19T08:48:39;5.70;;;4.50;;
76826;SDS011;65788;52.284;20.890;2023-11-19T08:51:08;5.70;;;4.40;;
76826;SDS011;65788;52.284;20.890;2023-11-19T08:53:35;6.00;;;4.80;;
76826;SDS011;65788;52.284;20.890;2023-11-19T08:56:02;5.90;;;5.00;;
76826;SDS011;65788;52.284;20.890;2023-11-19T08:58:30;6.20;;;5.00;;
76826;SDS011;65788;52.284;20.890;2023-11-19T09:00:57;6.60;;;4.70;;
76826;SDS011;65788;52.284;20.890;2023-11-19T09:03:24;6.10;;;5.00;;
76826;SDS011;65788;52.284;20.890;2023-11-19T09:05:53;6.10;;;4.60;;
76826;SDS011;65788;52.284;20.890;2023-11-19T09:08:20;6.80;;;5.10;;
76826;SDS011;65788;52.284;20.890;2023-11-19T09:10:47;6.30;;;4.70;;
76826;SDS011;65788;52.284;20.890;2023-11-19T09:13:14;6.20;;;4.80;;
76826;SDS011;65788;52.284;20.890;2023-11-19T09:15:42;5.60;;;4.70;;
76826;SDS011;65788;52.284;20.890;2023-11-19T09:18:08;7.30;;;4.50;;
76826;SDS011;65788;52.284;20.890;2023-11-19T09:20:35;5.70;;;4.40;;
76826;SDS011;65788;52.284;20.890;2023-11-19T09:23:05;7.60;;;4.70;;
76826;SDS011;65788;52.284;20.890;2023-11-19T09:25:33;6.20;;;4.80;;
76826;SDS011;65788;52.284;20.890;2023-11-19T09:28:00;6.20;;;4.60;;
76826;SDS011;65788;52.284;20.890;2023-11-19T09:30:27;5.20;;;4.50;;
76826;SDS011;65788;52.284;20.890;2023-11-19T09:32:56;5.90;;;4.60;;
76826;SDS011;65788;52.284;20.890;2023-11-19T09:35:26;6.60;;;4.80;;
76826;SDS011;65788;52.284;20.890;2023-11-19T09:37:53;5.40;;;4.50;;
76826;SDS011;65788;52.284;20.890;2023-11-19T09:40:20;5.20;;;4.40;;
76826;SDS011;65788;52.284;20.890;2023-11-19T09:42:47;5.90;;;4.80;;
76826;SDS011;65788;52.284;20.890;2023-11-19T09:45:15;6.40;;;4.50;;
76826;SDS011;65788;52.284;20.890;2023-11-19T09:50:17;6.60;;;4.50;;
76826;SDS011;65788;52.284;20.890;2023-11-19T09:52:47;5.50;;;4.30;;
76826;SDS011;65788;52.284;20.890;2023-11-19T09:55:15;5.20;;;4.40;;
76826;SDS011;65788;52.284;20.890;2023-11-19T09:57:43;8.30;;;4.90;;
76826;SDS011;65788;52.284;20.890;2023-11-19T10:00:11;7.30;;;4.80;;
76826;SDS011;65788;52.284;20.890;2023-11-19T10:02:41;6.30;;;4.40;;
76826;SDS011;65788;52.284;20.890;2023-11-19T10:05:12;5.50;;;4.20;;
76826;SDS011;65788;52.284;20.890;2023-11-19T10:07:41;6.20;;;4.30;;
76826;SDS011;65788;52.284;20.890;2023-11-19T10:10:09;7.00;;;4.50;;
76826;SDS011;65788;52.284;20.890;2023-11-19T10:12:40;6.40;;;4.50;;
76826;SDS011;65788;52.284;20.890;2023-11-19T10:15:07;8.10;;;4.90;;
76826;SDS011;65788;52.284;20.890;2023-11-19T10:17:43;6.40;;;4.70;;
76826;SDS011;65788;52.284;20.890;2023-11-19T10:20:10;6.50;;;4.60;;
76826;SDS011;65788;52.284;20.890;2023-11-19T10:22:37;9.00;;;4.80;;
76826;SDS011;65788;52.284;20.890;2023-11-19T10:27:55;8.10;;;5.10;;
76826;SDS011;65788;52.284;20.890;2023-11-19T10:33:02;9.10;;;5.30;;
76826;SDS011;65788;52.284;20.890;2023-11-19T10:35:32;7.10;;;5.40;;
76826;SDS011;65788;52.284;20.890;2023-11-19T10:38:01;6.90;;;4.60;;
76826;SDS011;65788;52.284;20.890;2023-11-19T10:40:41;7.60;;;5.30;;
76826;SDS011;65788;52.284;20.890;2023-11-19T10:43:09;8.10;;;5.30;;
76826;SDS011;65788;52.284;20.890;2023-11-19T10:45:36;8.40;;;5.00;;
76826;SDS011;65788;52.284;20.890;2023-11-19T10:48:06;7.20;;;5.50;;
76826;SDS011;65788;52.284;20.890;2023-11-19T10:50:34;8.10;;;5.20;;
76826;SDS011;65788;52.284;20.890;2023-11-19T10:53:03;7.80;;;5.20;;
76826;SDS011;65788;52.284;20.890;2023-11-19T10:55:32;8.70;;;6.30;;
76826;SDS011;65788;52.284;20.890;2023-11-19T10:58:05;9.00;;;5.50;;
76826;SDS011;65788;52.284;20.890;2023-11-19T11:00:37;7.70;;;5.50;;
76826;SDS011;65788;52.284;20.890;2023-11-19T11:03:10;8.80;;;5.50;;
76826;SDS011;65788;52.284;20.890;2023-11-19T11:05:41;9.60;;;5.50;;
76826;SDS011;65788;52.284;20.890;2023-11-19T11:08:09;9.00;;;5.80;;
76826;SDS011;65788;52.284;20.890;2023-11-19T11:10:39;8.90;;;5.90;;
76826;SDS011;65788;52.284;20.890;2023-11-19T11:13:10;8.40;;;5.80;;
76826;SDS011;65788;52.284;20.890;2023-11-19T11:15:42;10.40;;;5.30;;
76826;SDS011;65788;52.284;20.890;2023-11-19T11:18:13;8.40;;;5.70;;
76826;SDS011;65788;52.284;20.890;2023-11-19T11:20:40;9.40;;;6.10;;
76826;SDS011;65788;52.284;20.890;2023-11-19T11:28:59;15.70;;;6.50;;
76826;SDS011;65788;52.284;20.890;2023-11-19T11:31:44;11.10;;;5.70;;
76826;SDS011;65788;52.284;20.890;2023-11-19T11:34:28;11.80;;;6.20;;
76826;SDS011;65788;52.284;20.890;2023-11-19T11:37:25;13.70;;;6.60;;
76826;SDS011;65788;52.284;20.890;2023-11-19T11:40:01;8.90;;;6.00;;
76826;SDS011;65788;52.284;20.890;2023-11-19T11:42:36;10.80;;;5.90;;
76826;SDS011;65788;52.284;20.890;2023-11-19T11:45:07;10.50;;;6.20;;
76826;SDS011;65788;52.284;20.890;2023-11-19T11:55:27;8.30;;;6.10;;
76826;SDS011;65788;52.284;20.890;2023-11-19T11:57:55;13.70;;;6.20;;
76826;SDS011;65788;52.284;20.890;2023-11-19T12:00:27;9.50;;;5.90;;
76826;SDS011;65788;52.284;20.890;2023-11-19T12:08:35;10.50;;;6.40;;
76826;SDS011;65788;52.284;20.890;2023-11-19T12:11:03;9.30;;;6.60;;
76826;SDS011;65788;52.284;20.890;2023-11-19T12:13:53;11.10;;;6.00;;
76826;SDS011;65788;52.284;20.890;2023-11-19T12:16:24;11.00;;;6.60;;
76826;SDS011;65788;52.284;20.890;2023-11-19T12:18:54;9.70;;;5.90;;
76826;SDS011;65788;52.284;20.890;2023-11-19T12:21:40;8.30;;;5.40;;
76826;SDS011;65788;52.284;20.890;2023-11-19T12:24:07;11.30;;;6.80;;
76826;SDS011;65788;52.284;20.890;2023-11-19T12:26:38;9.20;;;6.40;;
76826;SDS011;65788;52.284;20.890;2023-11-19T12:29:06;10.70;;;6.30;;
76826;SDS011;65788;52.284;20.890;2023-11-19T12:31:36;10.20;;;6.40;;
76826;SDS011;65788;52.284;20.890;2023-11-19T12:34:07;8.40;;;5.90;;
76826;SDS011;65788;52.284;20.890;2023-11-19T12:36:38;10.00;;;6.70;;
76826;SDS011;65788;52.284;20.890;2023-11-19T12:39:05;11.20;;;6.30;;
76826;SDS011;65788;52.284;20.890;2023-11-19T12:41:33;10.20;;;6.10;;
76826;SDS011;65788;52.284;20.890;2023-11-19T12:44:16;10.60;;;6.80;;
76826;SDS011;65788;52.284;20.890;2023-11-19T12:46:44;10.10;;;6.30;;
76826;SDS011;65788;52.284;20.890;2023-11-19T12:49:13;10.10;;;6.70;;
76826;SDS011;65788;52.284;20.890;2023-11-19T12:54:07;12.50;;;6.60;;
76826;SDS011;65788;52.284;20.890;2023-11-19T12:56:34;11.90;;;7.00;;
76826;SDS011;65788;52.284;20.890;2023-11-19T12:59:12;11.60;;;6.90;;
76826;SDS011;65788;52.284;20.890;2023-11-19T13:01:41;8.50;;;6.90;;
76826;SDS011;65788;52.284;20.890;2023-11-19T13:04:18;8.60;;;6.40;;
76826;SDS011;65788;52.284;20.890;2023-11-19T13:06:46;8.60;;;6.40;;
76826;SDS011;65788;52.284;20.890;2023-11-19T13:09:21;9.60;;;6.40;;
76826;SDS011;65788;52.284;20.890;2023-11-19T13:11:55;12.20;;;6.80;;
76826;SDS011;65788;52.284;20.890;2023-11-19T13:14:36;14.30;;;7.40;;
76826;SDS011;65788;52.284;20.890;2023-11-19T13:19:34;10.00;;;6.60;;
76826;SDS011;65788;52.284;20.890;2023-11-19T13:22:01;9.90;;;6.20;;
76826;SDS011;65788;52.284;20.890;2023-11-19T13:24:28;12.00;;;6.50;;
76826;SDS011;65788;52.284;20.890;2023-11-19T13:26:56;11.50;;;6.50;;
76826;SDS011;65788;52.284;20.890;2023-11-19T13:29:23;8.90;;;6.40;;
76826;SDS011;65788;52.284;20.890;2023-11-19T13:31:50;11.80;;;7.20;;
76826;SDS011;65788;52.284;20.890;2023-11-19T13:34:17;10.70;;;6.60;;
76826;SDS011;65788;52.284;20.890;2023-11-19T13:36:44;9.10;;;7.10;;
76826;SDS011;65788;52.284;20.890;2023-11-19T13:39:11;8.80;;;6.50;;
76826;SDS011;65788;52.284;20.890;2023-11-19T13:41:38;9.20;;;7.10;;
76826;SDS011;65788;52.284;20.890;2023-11-19T13:44:07;10.70;;;7.10;;
76826;SDS011;65788;52.284;20.890;2023-11-19T13:46:34;8.50;;;6.40;;
76826;SDS011;65788;52.284;20.890;2023-11-19T13:49:01;9.90;;;6.80;;
76826;SDS011;65788;52.284;20.890;2023-11-19T13:51:28;8.10;;;6.40;;
76826;SDS011;65788;52.284;20.890;2023-11-19T13:53:55;8.90;;;6.90;;
76826;SDS011;65788;52.284;20.890;2023-11-19T13:56:22;8.20;;;6.70;;
76826;SDS011;65788;52.284;20.890;2023-11-19T13:58:49;8.80;;;6.70;;
76826;SDS011;65788;52.284;20.890;2023-11-19T14:01:16;8.40;;;6.20;;
76826;SDS011;65788;52.284;20.890;2023-11-19T14:03:43;9.50;;;7.10;;
76826;SDS011;65788;52.284;20.890;2023-11-19T14:06:10;9.90;;;7.10;;
76826;SDS011;65788;52.284;20.890;2023-11-19T14:08:37;8.50;;;6.70;;
76826;SDS011;65788;52.284;20.890;2023-11-19T14:11:04;9.00;;;6.80;;
76826;SDS011;65788;52.284;20.890;2023-11-19T14:13:34;10.50;;;6.90;;
76826;SDS011;65788;52.284;20.890;2023-11-19T14:16:01;8.80;;;6.60;;
76826;SDS011;65788;52.284;20.890;2023-11-19T14:18:28;8.30;;;6.60;;
76826;SDS011;65788;52.284;20.890;2023-11-19T14:20:55;11.10;;;6.40;;
76826;SDS011;65788;52.284;20.890;2023-11-19T14:23:22;8.80;;;6.70;;
76826;SDS011;65788;52.284;20.890;2023-11-19T14:25:50;9.80;;;7.30;;
76826;SDS011;65788;52.284;20.890;2023-11-19T14:28:18;9.10;;;6.50;;
76826;SDS011;65788;52.284;20.890;2023-11-19T14:30:46;9.00;;;7.10;;
76826;SDS011;65788;52.284;20.890;2023-11-19T14:33:14;9.00;;;7.40;;
76826;SDS011;65788;52.284;20.890;2023-11-19T14:35:41;11.00;;;6.70;;
76826;SDS011;65788;52.284;20.890;2023-11-19T14:38:09;9.20;;;7.10;;
76826;SDS011;65788;52.284;20.890;2023-11-19T14:40:36;10.30;;;7.10;;
76826;SDS011;65788;52.284;20.890;2023-11-19T14:43:03;8.10;;;6.60;;
76826;SDS011;65788;52.284;20.890;2023-11-19T14:45:30;9.70;;;6.80;;
76826;SDS011;65788;52.284;20.890;2023-11-19T14:47:57;9.40;;;6.70;;
76826;SDS011;65788;52.284;20.890;2023-11-19T14:50:24;8.50;;;6.70;;
76826;SDS011;65788;52.284;20.890;2023-11-19T14:52:51;9.10;;;6.20;;
76826;SDS011;65788;52.284;20.890;2023-11-19T14:55:18;9.50;;;6.40;;
76826;SDS011;65788;52.284;20.890;2023-11-19T14:57:45;9.20;;;6.20;;
76826;SDS011;65788;52.284;20.890;2023-11-19T15:00:12;9.00;;;6.70;;
76826;SDS011;65788;52.284;20.890;2023-11-19T15:02:40;9.30;;;6.00;;
76826;SDS011;65788;52.284;20.890;2023-11-19T15:05:08;10.00;;;6.80;;
76826;SDS011;65788;52.284;20.890;2023-11-19T15:07:39;8.00;;;6.70;;
76826;SDS011;65788;52.284;20.890;2023-11-19T15:10:07;8.00;;;6.50;;
76826;SDS011;65788;52.284;20.890;2023-11-19T15:12:37;8.30;;;6.50;;
76826;SDS011;65788;52.284;20.890;2023-11-19T15:15:06;8.50;;;6.50;;
76826;SDS011;65788;52.284;20.890;2023-11-19T15:17:35;8.60;;;6.10;;